createdAt,value
2023-05-09T00:00:02.645Z,100.00
2023-05-09T00:02:29.707Z,100.00
2023-05-09T00:04:56.791Z,100.00
2023-05-09T00:07:23.207Z,100.00
2023-05-09T00:09:49.589Z,100.00
2023-05-09T00:12:16.204Z,100.00
2023-05-09T00:14:45.263Z,100.00
2023-05-09T00:17:14.482Z,100.00
2023-05-09T00:19:41.147Z,100.00
2023-05-09T00:22:09.182Z,100.00
2023-05-09T00:24:35.627Z,100.00
2023-05-09T00:27:02.043Z,100.00
2023-05-09T00:29:28.404Z,100.00
2023-05-09T00:31:54.842Z,100.00
2023-05-09T00:34:21.271Z,100.00
2023-05-09T00:36:47.792Z,100.00
2023-05-09T00:39:14.232Z,100.00
2023-05-09T00:41:40.663Z,100.00
2023-05-09T00:44:07.093Z,100.00
2023-05-09T00:46:33.989Z,100.00
2023-05-09T00:49:00.489Z,100.00
2023-05-09T00:51:28.534Z,100.00
2023-05-09T00:53:55.070Z,100.00
2023-05-09T00:56:22.029Z,100.00
2023-05-09T00:58:48.852Z,100.00
2023-05-09T01:01:16.420Z,100.00
2023-05-09T01:03:43.645Z,100.00
2023-05-09T01:06:16.853Z,100.00
2023-05-09T01:09:00.171Z,100.00
2023-05-09T01:11:36.205Z,100.00
2023-05-09T01:14:27.502Z,100.00
2023-05-09T01:17:02.621Z,100.00
2023-05-09T01:19:56.735Z,100.00
2023-05-09T01:22:36.589Z,100.00
2023-05-09T01:25:24.247Z,100.00
2023-05-09T01:28:02.528Z,100.00
2023-05-09T01:30:29.671Z,100.00
2023-05-09T01:33:00.250Z,100.00
2023-05-09T01:35:29.996Z,100.00
2023-05-09T01:37:58.164Z,100.00
2023-05-09T01:40:27.979Z,100.00
2023-05-09T01:43:01.908Z,100.00
2023-05-09T01:45:29.969Z,100.00
2023-05-09T01:47:58.511Z,100.00
2023-05-09T01:50:25.943Z,100.00
2023-05-09T01:52:56.720Z,100.00
2023-05-09T01:55:26.976Z,100.00
2023-05-09T01:57:53.782Z,100.00
2023-05-09T02:00:22.068Z,100.00
2023-05-09T02:02:49.388Z,100.00
2023-05-09T02:05:17.516Z,100.00
2023-05-09T02:07:46.925Z,100.00
2023-05-09T02:10:15.486Z,100.00
2023-05-09T02:12:41.993Z,100.00
2023-05-09T02:15:08.907Z,100.00
2023-05-09T02:17:35.344Z,100.00
2023-05-09T02:20:01.787Z,100.00
2023-05-09T02:22:28.348Z,100.00
2023-05-09T02:24:54.925Z,100.00
2023-05-09T02:27:21.805Z,100.00
2023-05-09T02:29:51.451Z,100.00
2023-05-09T02:32:25.656Z,100.00
2023-05-09T02:34:54.093Z,100.00
2023-05-09T02:37:21.549Z,100.00
2023-05-09T02:39:48.331Z,100.00
2023-05-09T02:42:21.989Z,100.00
2023-05-09T02:44:48.408Z,100.00
2023-05-09T02:47:14.857Z,100.00
2023-05-09T02:49:41.220Z,100.00
2023-05-09T02:52:07.587Z,100.00
2023-05-09T02:54:33.998Z,100.00
2023-05-09T02:57:00.467Z,100.00
2023-05-09T02:59:27.410Z,100.00
2023-05-09T03:01:53.949Z,100.00
2023-05-09T03:04:20.338Z,100.00
2023-05-09T03:06:46.783Z,100.00
2023-05-09T03:09:13.184Z,100.00
2023-05-09T03:11:39.670Z,100.00
2023-05-09T03:14:08.238Z,100.00
2023-05-09T03:16:34.965Z,100.00
2023-05-09T03:19:01.360Z,100.00
2023-05-09T03:21:27.775Z,100.00
2023-05-09T03:23:54.184Z,100.00
2023-05-09T03:26:21.571Z,100.00
2023-05-09T03:28:48.924Z,100.00
2023-05-09T03:31:15.884Z,100.00
2023-05-09T03:33:42.311Z,100.00
2023-05-09T03:36:09.042Z,100.00
2023-05-09T03:38:35.448Z,100.00
2023-05-09T03:41:01.864Z,100.00
2023-05-09T03:43:28.258Z,100.00
2023-05-09T03:45:54.717Z,100.00
2023-05-09T03:48:21.182Z,100.00
2023-05-09T03:50:47.688Z,100.00
2023-05-09T03:53:14.088Z,100.00
2023-05-09T03:55:40.902Z,100.00
2023-05-09T03:58:07.334Z,100.00
2023-05-09T04:00:33.836Z,100.00
2023-05-09T04:03:00.447Z,100.00
2023-05-09T04:05:27.270Z,100.00
2023-05-09T04:07:53.744Z,100.00
2023-05-09T04:10:20.218Z,100.00
2023-05-09T04:12:46.616Z,100.00
2023-05-09T04:15:13.347Z,100.00
2023-05-09T04:17:40.089Z,100.00
2023-05-09T04:20:08.178Z,100.00
2023-05-09T04:22:34.579Z,100.00
2023-05-09T04:25:00.953Z,100.00
2023-05-09T04:27:28.110Z,100.00
2023-05-09T04:29:54.584Z,100.00
2023-05-09T04:32:22.427Z,100.00
2023-05-09T04:34:49.516Z,100.00
2023-05-09T04:37:15.968Z,100.00
2023-05-09T04:39:42.408Z,100.00
2023-05-09T04:42:08.812Z,100.00
2023-05-09T04:44:35.882Z,100.00
2023-05-09T04:47:02.288Z,100.00
2023-05-09T04:49:28.665Z,100.00
2023-05-09T04:51:55.052Z,100.00
2023-05-09T04:54:21.452Z,100.00
2023-05-09T04:56:50.014Z,100.00
2023-05-09T04:59:17.113Z,100.00
2023-05-09T05:01:43.665Z,100.00
2023-05-09T05:04:10.225Z,100.00
2023-05-09T05:06:36.676Z,100.00
2023-05-09T05:09:03.289Z,100.00
2023-05-09T05:11:29.700Z,100.00
2023-05-09T05:13:56.110Z,100.00
2023-05-09T05:16:22.593Z,100.00
2023-05-09T05:18:49.102Z,100.00
2023-05-09T05:21:16.298Z,100.00
2023-05-09T05:23:42.794Z,100.00
2023-05-09T05:26:09.235Z,100.00
2023-05-09T05:28:35.767Z,100.00
2023-05-09T05:31:02.259Z,100.00
2023-05-09T05:33:28.670Z,100.00
2023-05-09T05:35:55.063Z,100.00
2023-05-09T05:38:21.579Z,100.00
2023-05-09T05:40:48.079Z,100.00
2023-05-09T05:43:14.511Z,100.00
2023-05-09T05:45:40.994Z,100.00
2023-05-09T05:48:07.542Z,100.00
2023-05-09T05:50:34.486Z,100.00
2023-05-09T05:53:00.928Z,100.00
2023-05-09T05:55:27.333Z,100.00
2023-05-09T05:57:53.892Z,100.00
2023-05-09T06:00:20.833Z,100.00
2023-05-09T06:02:50.054Z,100.00
2023-05-09T06:05:16.981Z,100.00
2023-05-09T06:07:44.345Z,100.00
2023-05-09T06:10:11.202Z,100.00
2023-05-09T06:12:37.744Z,100.00
2023-05-09T06:15:05.897Z,100.00
2023-05-09T06:17:32.384Z,100.00
2023-05-09T06:19:58.805Z,100.00
2023-05-09T06:22:25.246Z,100.00
2023-05-09T06:24:51.596Z,100.00
2023-05-09T06:27:18.467Z,100.00
2023-05-09T06:29:44.880Z,100.00
2023-05-09T06:32:11.261Z,100.00
2023-05-09T06:34:37.672Z,100.00
2023-05-09T06:37:04.143Z,100.00
2023-05-09T06:39:30.636Z,100.00
2023-05-09T06:41:57.007Z,100.00
2023-05-09T06:44:23.419Z,100.00
2023-05-09T06:46:49.877Z,100.00
2023-05-09T06:49:16.354Z,100.00
2023-05-09T06:51:42.791Z,100.00
2023-05-09T06:54:09.166Z,100.00
2023-05-09T06:56:36.394Z,100.00
2023-05-09T06:59:02.882Z,100.00
2023-05-09T07:01:29.297Z,100.00
2023-05-09T07:03:55.760Z,100.00
2023-05-09T07:06:22.169Z,100.00
2023-05-09T07:08:48.592Z,100.00
2023-05-09T07:11:15.018Z,100.00
2023-05-09T07:13:41.743Z,100.00
2023-05-09T07:16:08.233Z,100.00
2023-05-09T07:18:34.860Z,100.00
2023-05-09T07:21:01.270Z,100.00
2023-05-09T07:23:27.692Z,100.00
2023-05-09T07:25:58.567Z,100.00
2023-05-09T07:28:25.996Z,100.00
2023-05-09T07:30:52.445Z,100.00
2023-05-09T07:33:18.849Z,100.00
2023-05-09T07:35:45.303Z,100.00
2023-05-09T07:38:12.112Z,100.00
2023-05-09T07:40:38.780Z,100.00
2023-05-09T07:43:05.220Z,100.00
2023-05-09T07:45:31.760Z,100.00
2023-05-09T07:47:58.241Z,100.00
2023-05-09T07:50:24.752Z,100.00
2023-05-09T07:52:52.655Z,100.00
2023-05-09T07:55:19.234Z,100.00
2023-05-09T07:57:45.687Z,100.00
2023-05-09T08:00:12.733Z,100.00
2023-05-09T08:02:39.256Z,100.00
2023-05-09T08:05:06.209Z,100.00
2023-05-09T08:07:32.632Z,100.00
2023-05-09T08:09:59.055Z,100.00
2023-05-09T08:12:25.510Z,100.00
2023-05-09T08:14:51.914Z,100.00
2023-05-09T08:17:18.357Z,100.00
2023-05-09T08:19:44.750Z,100.00
2023-05-09T08:22:19.793Z,100.00
2023-05-09T08:24:47.014Z,100.00
2023-05-09T08:27:14.844Z,100.00
2023-05-09T08:29:41.622Z,100.00
2023-05-09T08:32:08.633Z,100.00
2023-05-09T08:34:36.349Z,100.00
2023-05-09T08:37:03.977Z,100.00
2023-05-09T08:39:31.015Z,100.00
2023-05-09T08:41:59.505Z,100.00
2023-05-09T08:44:26.967Z,100.00
2023-05-09T08:46:58.517Z,100.00
2023-05-09T08:49:26.033Z,100.00
2023-05-09T08:51:52.508Z,100.00
2023-05-09T08:54:20.781Z,100.00
2023-05-09T08:56:50.394Z,100.00
2023-05-09T08:59:18.476Z,100.00
2023-05-09T09:01:45.661Z,100.00
2023-05-09T09:04:12.263Z,100.00
2023-05-09T09:06:39.762Z,100.00
2023-05-09T09:09:08.779Z,100.00
2023-05-09T09:11:36.669Z,100.00
2023-05-09T09:14:12.859Z,100.00
2023-05-09T09:16:41.582Z,100.00
2023-05-09T09:19:13.127Z,100.00
2023-05-09T09:21:43.340Z,100.00
2023-05-09T09:24:15.401Z,100.00
2023-05-09T09:26:47.158Z,100.00
2023-05-09T09:29:14.795Z,100.00
2023-05-09T09:31:45.163Z,100.00
2023-05-09T09:34:14.520Z,100.00
2023-05-09T09:36:41.104Z,100.00
2023-05-09T09:39:09.102Z,100.00
2023-05-09T09:41:39.260Z,100.00
2023-05-09T09:44:17.011Z,100.00
2023-05-09T09:46:43.808Z,100.00
2023-05-09T09:49:11.603Z,100.00
2023-05-09T09:51:38.117Z,100.00
2023-05-09T09:54:07.907Z,100.00
2023-05-09T09:56:47.852Z,100.00
2023-05-09T09:59:17.196Z,100.00
2023-05-09T10:02:07.562Z,100.00
2023-05-09T10:04:37.005Z,100.00
2023-05-09T10:07:13.543Z,100.00
2023-05-09T10:09:41.231Z,100.00
2023-05-09T10:12:08.578Z,100.00
2023-05-09T10:14:36.506Z,100.00
2023-05-09T10:17:05.529Z,100.00
2023-05-09T10:19:33.087Z,100.00
2023-05-09T10:22:05.738Z,100.00
2023-05-09T10:24:48.843Z,100.00
2023-05-09T10:27:21.674Z,100.00
2023-05-09T10:30:04.813Z,100.00
2023-05-09T10:32:41.714Z,100.00
2023-05-09T10:35:13.890Z,100.00
2023-05-09T10:37:41.187Z,100.00
2023-05-09T10:40:09.174Z,100.00
2023-05-09T10:42:36.059Z,100.00
2023-05-09T10:45:03.062Z,100.00
2023-05-09T10:47:31.942Z,100.00
2023-05-09T10:49:59.465Z,100.00
2023-05-09T10:52:31.992Z,100.00
2023-05-09T10:55:04.032Z,100.00
2023-05-09T10:57:32.054Z,100.00
2023-05-09T11:00:00.243Z,100.00
2023-05-09T11:02:30.785Z,100.00
2023-05-09T11:05:20.186Z,100.00
2023-05-09T11:07:46.713Z,100.00
2023-05-09T11:10:18.002Z,100.00
2023-05-09T11:12:59.134Z,100.00
2023-05-09T11:15:27.728Z,100.00
2023-05-09T11:18:08.548Z,98.56
2023-05-09T11:20:35.780Z,100.00
2023-05-09T11:23:05.852Z,100.00
2023-05-09T11:25:32.990Z,100.00
2023-05-09T11:28:01.866Z,100.00
2023-05-09T11:30:42.512Z,98.34
2023-05-09T11:33:28.363Z,99.50
2023-05-09T11:36:29.174Z,99.90
2023-05-09T11:39:06.495Z,100.00
2023-05-09T11:41:44.069Z,100.00
2023-05-09T11:44:17.961Z,99.46
2023-05-09T11:46:45.863Z,99.66
2023-05-09T11:49:12.537Z,99.75
2023-05-09T11:51:39.573Z,99.76
2023-05-09T11:54:07.166Z,98.48
2023-05-09T11:56:37.968Z,96.10
2023-05-09T11:59:04.487Z,96.81
2023-05-09T12:01:31.253Z,96.46
2023-05-09T12:03:59.149Z,95.18
2023-05-09T12:06:29.890Z,92.92
2023-05-09T12:08:57.773Z,90.16
2023-05-09T12:11:24.826Z,86.54
2023-05-09T12:13:52.680Z,83.66
2023-05-09T12:16:20.469Z,81.28
2023-05-09T12:18:49.553Z,80.04
2023-05-09T12:21:17.163Z,75.81
2023-05-09T12:23:44.205Z,75.86
2023-05-09T12:26:10.997Z,72.77
2023-05-09T12:28:37.959Z,74.13
2023-05-09T12:31:05.651Z,72.43
2023-05-09T12:33:32.428Z,69.73
2023-05-09T12:36:06.969Z,71.11
2023-05-09T12:38:33.742Z,73.26
2023-05-09T12:41:04.517Z,73.20
2023-05-09T12:43:32.749Z,72.79
2023-05-09T12:46:00.453Z,72.55
2023-05-09T12:48:27.504Z,73.68
2023-05-09T12:50:53.981Z,68.17
2023-05-09T12:53:25.107Z,67.83
2023-05-09T12:55:55.948Z,66.02
2023-05-09T12:58:22.384Z,68.34
2023-05-09T13:00:48.864Z,66.58
2023-05-09T13:03:42.414Z,60.20
2023-05-09T13:06:13.552Z,62.09
2023-05-09T13:08:40.910Z,64.16
2023-05-09T13:11:16.748Z,62.24
2023-05-09T13:13:43.736Z,63.58
2023-05-09T13:16:11.231Z,63.20
2023-05-09T13:18:38.477Z,63.59
2023-05-09T13:21:04.877Z,63.31
2023-05-09T13:23:31.294Z,63.05
2023-05-09T13:25:57.704Z,62.62
2023-05-09T13:28:24.081Z,65.33
2023-05-09T13:30:50.522Z,65.28
2023-05-09T13:33:25.984Z,63.70
2023-05-09T13:35:53.166Z,63.95
2023-05-09T13:38:19.653Z,65.96
2023-05-09T13:40:46.388Z,69.38
2023-05-09T13:43:12.823Z,70.46
2023-05-09T13:45:39.262Z,73.16
2023-05-09T13:48:05.989Z,75.78
2023-05-09T13:50:32.476Z,76.61
2023-05-09T13:52:59.013Z,77.63
2023-05-09T13:55:26.914Z,79.64
2023-05-09T13:57:53.453Z,81.77
2023-05-09T14:00:21.385Z,82.62
2023-05-09T14:02:48.328Z,82.91
2023-05-09T14:05:14.873Z,84.12
2023-05-09T14:07:41.347Z,85.35
2023-05-09T14:10:11.922Z,86.24
2023-05-09T14:12:39.645Z,87.81
2023-05-09T14:15:07.767Z,87.13
2023-05-09T14:17:34.440Z,88.78
2023-05-09T14:20:01.115Z,90.67
2023-05-09T14:22:28.186Z,95.21
2023-05-09T14:24:56.467Z,96.87
2023-05-09T14:27:22.985Z,98.67
2023-05-09T14:29:49.447Z,99.05
2023-05-09T14:32:16.091Z,100.00
2023-05-09T14:34:42.575Z,100.00
2023-05-09T14:37:13.610Z,100.00
2023-05-09T14:39:44.954Z,100.00
2023-05-09T14:42:11.702Z,100.00
2023-05-09T14:44:38.792Z,100.00
2023-05-09T14:47:05.421Z,100.00
2023-05-09T14:49:32.476Z,100.00
2023-05-09T14:51:59.004Z,100.00
2023-05-09T14:54:25.578Z,100.00
2023-05-09T14:56:51.945Z,100.00
2023-05-09T14:59:18.522Z,100.00
2023-05-09T15:01:46.178Z,100.00
2023-05-09T15:04:12.672Z,100.00
2023-05-09T15:06:39.710Z,100.00
2023-05-09T15:09:06.202Z,100.00
2023-05-09T15:11:46.228Z,100.00
2023-05-09T15:14:14.698Z,100.00
2023-05-09T15:16:41.396Z,100.00
2023-05-09T15:19:08.202Z,100.00
2023-05-09T15:21:35.074Z,100.00
2023-05-09T15:24:02.495Z,100.00
2023-05-09T15:26:29.385Z,100.00
2023-05-09T15:28:58.321Z,100.00
2023-05-09T15:31:25.754Z,100.00
2023-05-09T15:33:52.362Z,100.00
2023-05-09T15:36:18.866Z,100.00
2023-05-09T15:38:49.098Z,100.00
2023-05-09T15:41:15.906Z,100.00
2023-05-09T15:43:42.297Z,100.00
2023-05-09T15:46:08.929Z,100.00
2023-05-09T15:48:35.354Z,100.00
2023-05-09T15:51:03.024Z,100.00
2023-05-09T15:53:29.972Z,100.00
2023-05-09T15:55:57.043Z,100.00
2023-05-09T15:58:23.496Z,100.00
2023-05-09T16:00:50.125Z,100.00
2023-05-09T16:03:16.705Z,100.00
2023-05-09T16:05:46.358Z,100.00
2023-05-09T16:08:12.820Z,100.00
2023-05-09T16:10:39.326Z,100.00
2023-05-09T16:13:05.971Z,100.00
2023-05-09T16:15:32.646Z,100.00
2023-05-09T16:17:59.045Z,100.00
2023-05-09T16:20:25.462Z,100.00
2023-05-09T16:22:52.083Z,100.00
2023-05-09T16:25:18.533Z,100.00
2023-05-09T16:27:45.064Z,100.00
2023-05-09T16:30:12.063Z,100.00
2023-05-09T16:32:38.793Z,100.00
2023-05-09T16:35:06.230Z,100.00
2023-05-09T16:37:34.151Z,100.00
2023-05-09T16:40:02.202Z,100.00
2023-05-09T16:42:28.682Z,100.00
2023-05-09T16:44:55.752Z,100.00
2023-05-09T16:47:22.297Z,100.00
2023-05-09T16:49:48.787Z,100.00
2023-05-09T16:52:15.367Z,100.00
2023-05-09T16:54:41.811Z,100.00
2023-05-09T16:57:08.396Z,100.00
2023-05-09T16:59:34.846Z,100.00
2023-05-09T17:02:01.503Z,100.00
2023-05-09T17:04:27.995Z,100.00
2023-05-09T17:06:54.526Z,100.00
2023-05-09T17:09:20.994Z,100.00
2023-05-09T17:11:48.262Z,100.00
2023-05-09T17:14:14.884Z,100.00
2023-05-09T17:16:41.327Z,100.00
2023-05-09T17:19:07.896Z,100.00
2023-05-09T17:21:34.920Z,100.00
2023-05-09T17:24:02.184Z,100.00
2023-05-09T17:26:29.652Z,100.00
2023-05-09T17:28:56.133Z,100.00
2023-05-09T17:31:22.992Z,100.00
2023-05-09T17:33:49.479Z,100.00
2023-05-09T17:36:15.934Z,100.00
2023-05-09T17:38:42.421Z,100.00
2023-05-09T17:41:08.834Z,100.00
2023-05-09T17:43:35.199Z,100.00
2023-05-09T17:46:01.645Z,100.00
2023-05-09T17:48:28.158Z,100.00
2023-05-09T17:50:54.995Z,100.00
2023-05-09T17:53:21.725Z,100.00
2023-05-09T17:55:48.168Z,100.00
2023-05-09T17:58:15.235Z,100.00
2023-05-09T18:00:41.852Z,100.00
2023-05-09T18:03:08.365Z,100.00
2023-05-09T18:05:34.925Z,100.00
2023-05-09T18:08:01.495Z,100.00
2023-05-09T18:10:28.641Z,100.00
2023-05-09T18:12:55.115Z,100.00
2023-05-09T18:15:21.577Z,100.00
2023-05-09T18:17:49.187Z,100.00
2023-05-09T18:20:15.948Z,100.00
2023-05-09T18:22:42.545Z,100.00
2023-05-09T18:25:09.376Z,100.00
2023-05-09T18:27:35.821Z,100.00
2023-05-09T18:30:02.596Z,100.00
2023-05-09T18:32:29.937Z,100.00
2023-05-09T18:34:56.483Z,100.00
2023-05-09T18:37:22.993Z,100.00
2023-05-09T18:39:49.671Z,100.00
2023-05-09T18:42:16.464Z,100.00
2023-05-09T18:44:43.192Z,100.00
2023-05-09T18:47:09.737Z,100.00
2023-05-09T18:49:36.206Z,100.00
2023-05-09T18:52:03.412Z,100.00
2023-05-09T18:54:29.907Z,100.00
2023-05-09T18:56:56.380Z,100.00
2023-05-09T18:59:23.467Z,100.00
2023-05-09T19:01:50.281Z,100.00
2023-05-09T19:04:17.368Z,100.00
2023-05-09T19:06:44.110Z,100.00
2023-05-09T19:09:11.647Z,100.00
2023-05-09T19:11:38.191Z,100.00
2023-05-09T19:14:05.122Z,100.00
2023-05-09T19:16:31.751Z,100.00
2023-05-09T19:18:58.899Z,100.00
2023-05-09T19:21:25.542Z,100.00
2023-05-09T19:23:52.351Z,100.00
2023-05-09T19:26:19.580Z,100.00
2023-05-09T19:28:46.827Z,100.00
2023-05-09T19:31:14.834Z,100.00
2023-05-09T19:33:45.455Z,100.00
2023-05-09T19:36:12.183Z,100.00
2023-05-09T19:38:38.852Z,100.00
2023-05-09T19:41:05.352Z,100.00
2023-05-09T19:43:32.498Z,100.00
2023-05-09T19:45:59.943Z,100.00
2023-05-09T19:48:26.521Z,100.00
2023-05-09T19:50:57.305Z,100.00
2023-05-09T19:53:23.996Z,100.00
2023-05-09T19:55:50.482Z,100.00
2023-05-09T19:58:17.721Z,100.00
2023-05-09T20:00:44.765Z,100.00
2023-05-09T20:03:11.305Z,100.00
2023-05-09T20:05:37.928Z,100.00
2023-05-09T20:08:04.492Z,100.00
2023-05-09T20:10:32.882Z,100.00
2023-05-09T20:13:00.881Z,100.00
2023-05-09T20:15:27.840Z,100.00
2023-05-09T20:17:54.428Z,100.00
2023-05-09T20:20:21.105Z,100.00
2023-05-09T20:22:47.607Z,100.00
2023-05-09T20:25:14.766Z,100.00
2023-05-09T20:27:41.336Z,100.00
2023-05-09T20:30:08.323Z,100.00
2023-05-09T20:32:35.149Z,100.00
2023-05-09T20:35:01.919Z,100.00
2023-05-09T20:37:28.319Z,100.00
2023-05-09T20:39:54.667Z,100.00
2023-05-09T20:42:21.172Z,100.00
2023-05-09T20:44:48.632Z,100.00
2023-05-09T20:47:15.062Z,100.00
2023-05-09T20:49:41.454Z,100.00
2023-05-09T20:52:07.888Z,100.00
2023-05-09T20:54:34.449Z,100.00
2023-05-09T20:57:00.873Z,100.00
2023-05-09T20:59:27.306Z,100.00
2023-05-09T21:01:55.567Z,100.00
2023-05-09T21:04:22.324Z,100.00
2023-05-09T21:06:48.830Z,100.00
2023-05-09T21:09:15.287Z,100.00
2023-05-09T21:11:41.734Z,100.00
2023-05-09T21:14:08.681Z,100.00
2023-05-09T21:16:35.319Z,100.00
2023-05-09T21:19:04.812Z,100.00
2023-05-09T21:21:33.172Z,100.00
2023-05-09T21:24:03.085Z,100.00
2023-05-09T21:26:30.325Z,100.00
2023-05-09T21:28:56.815Z,100.00
2023-05-09T21:31:23.272Z,100.00
2023-05-09T21:33:49.774Z,100.00
2023-05-09T21:36:16.146Z,100.00
2023-05-09T21:38:42.551Z,100.00
2023-05-09T21:41:10.030Z,100.00
2023-05-09T21:43:37.456Z,100.00
2023-05-09T21:46:05.186Z,100.00
2023-05-09T21:48:31.716Z,100.00
2023-05-09T21:51:02.080Z,100.00
2023-05-09T21:53:28.598Z,100.00
2023-05-09T21:55:54.972Z,100.00
2023-05-09T21:58:21.383Z,100.00
2023-05-09T22:00:47.827Z,100.00
2023-05-09T22:03:14.267Z,100.00
2023-05-09T22:05:41.246Z,100.00
2023-05-09T22:08:07.706Z,100.00
2023-05-09T22:10:34.114Z,100.00
2023-05-09T22:13:00.629Z,100.00
2023-05-09T22:15:27.842Z,100.00
2023-05-09T22:17:54.290Z,100.00
2023-05-09T22:20:21.114Z,100.00
2023-05-09T22:22:47.580Z,100.00
2023-05-09T22:25:14.233Z,100.00
2023-05-09T22:27:41.708Z,100.00
2023-05-09T22:30:09.256Z,100.00
2023-05-09T22:32:35.705Z,100.00
2023-05-09T22:35:02.260Z,100.00
2023-05-09T22:37:28.759Z,100.00
2023-05-09T22:39:55.728Z,100.00
2023-05-09T22:42:22.171Z,100.00
2023-05-09T22:44:49.713Z,100.00
2023-05-09T22:47:16.225Z,100.00
2023-05-09T22:52:09.846Z,100.00
2023-05-09T22:54:36.279Z,100.00
2023-05-09T22:57:02.794Z,100.00
2023-05-09T22:59:29.224Z,100.00
2023-05-09T23:01:55.816Z,100.00
2023-05-09T23:04:22.186Z,100.00
2023-05-09T23:06:48.659Z,100.00
2023-05-09T23:09:15.086Z,100.00
2023-05-09T23:11:42.215Z,100.00
2023-05-09T23:14:08.653Z,100.00
2023-05-09T23:16:35.399Z,100.00
2023-05-09T23:19:01.929Z,100.00
2023-05-09T23:21:29.102Z,100.00
2023-05-09T23:23:55.523Z,100.00
2023-05-09T23:26:21.959Z,100.00
2023-05-09T23:28:48.409Z,100.00
2023-05-09T23:31:14.927Z,100.00
2023-05-09T23:33:41.349Z,100.00
2023-05-09T23:36:08.165Z,100.00
2023-05-09T23:38:34.562Z,100.00
2023-05-09T23:41:01.304Z,100.00
2023-05-09T23:43:27.703Z,100.00
2023-05-09T23:45:54.345Z,100.00
2023-05-09T23:48:20.909Z,100.00
2023-05-09T23:50:47.313Z,100.00
2023-05-09T23:53:13.747Z,100.00
2023-05-09T23:55:40.178Z,100.00
2023-05-09T23:58:06.540Z,100.00
